createdAt,value
2019-02-27T00:01:29.407Z,6.60
2019-02-27T00:03:59.810Z,4.87
2019-02-27T00:06:29.680Z,5.07
2019-02-27T00:09:00.484Z,5.03
2019-02-27T00:11:29.984Z,5.27
2019-02-27T00:13:59.291Z,5.00
2019-02-27T00:16:28.605Z,5.20
2019-02-27T00:18:58.903Z,5.80
2019-02-27T00:21:28.671Z,4.90
2019-02-27T00:23:58.015Z,5.97
2019-02-27T00:26:27.314Z,5.63
2019-02-27T00:28:56.744Z,5.60
2019-02-27T00:31:26.095Z,5.40
2019-02-27T00:33:59.598Z,5.60
2019-02-27T00:36:26.298Z,5.80
2019-02-27T00:38:57.773Z,6.17
2019-02-27T00:41:26.570Z,5.17
2019-02-27T00:43:55.866Z,6.60
2019-02-27T00:46:25.107Z,6.60
2019-02-27T00:48:54.358Z,6.30
2019-02-27T00:51:23.626Z,4.87
2019-02-27T00:53:52.914Z,5.47
2019-02-27T00:56:22.146Z,5.90
2019-02-27T00:58:51.699Z,5.00
2019-02-27T01:01:20.946Z,5.03
2019-02-27T01:03:50.194Z,5.63
2019-02-27T01:06:19.461Z,6.43
2019-02-27T01:08:48.710Z,6.27
2019-02-27T01:11:21.941Z,5.20
2019-02-27T01:13:51.249Z,5.20
2019-02-27T01:16:20.503Z,5.10
2019-02-27T01:18:51.001Z,5.67
2019-02-27T01:21:20.412Z,5.97
2019-02-27T01:23:49.650Z,5.40
2019-02-27T01:26:18.938Z,5.33
2019-02-27T01:28:48.199Z,5.83
2019-02-27T01:31:17.470Z,5.10
2019-02-27T01:33:46.757Z,5.60
2019-02-27T01:36:15.995Z,4.60
2019-02-27T01:38:45.342Z,4.93
2019-02-27T01:41:14.615Z,4.63
2019-02-27T01:43:43.871Z,4.63
2019-02-27T01:46:13.106Z,4.57
2019-02-27T01:48:43.606Z,4.60
2019-02-27T01:51:13.295Z,4.73
2019-02-27T01:53:42.568Z,5.00
2019-02-27T01:56:11.869Z,5.17
2019-02-27T01:58:44.131Z,4.97
2019-02-27T02:01:12.536Z,4.87
2019-02-27T02:03:41.779Z,5.00
2019-02-27T02:06:11.117Z,4.43
2019-02-27T02:08:40.378Z,4.70
2019-02-27T02:11:10.646Z,4.60
2019-02-27T02:13:48.909Z,5.10
2019-02-27T02:16:57.501Z,5.03
2019-02-27T02:20:05.386Z,4.60
2019-02-27T02:23:28.877Z,5.67
2019-02-27T02:26:18.439Z,5.03
2019-02-27T02:29:43.439Z,5.47
2019-02-27T02:32:31.049Z,5.20
2019-02-27T02:35:37.084Z,4.93
2019-02-27T02:38:50.568Z,4.67
2019-02-27T02:41:59.639Z,5.50
2019-02-27T02:44:57.523Z,5.87
2019-02-27T02:48:16.438Z,5.23
2019-02-27T02:51:33.232Z,5.47
2019-02-27T02:54:39.542Z,5.83
2019-02-27T02:57:29.394Z,5.40
2019-02-27T03:00:29.144Z,5.00
2019-02-27T03:03:28.891Z,5.30
2019-02-27T03:06:45.495Z,5.17
2019-02-27T03:09:27.157Z,5.03
2019-02-27T03:12:47.919Z,5.07
2019-02-27T03:15:53.920Z,5.17
2019-02-27T03:18:53.272Z,5.10
2019-02-27T03:22:03.096Z,5.10
2019-02-27T03:25:06.836Z,5.80
2019-02-27T03:28:17.637Z,5.03
2019-02-27T03:31:19.618Z,5.90
2019-02-27T03:34:11.317Z,5.03
2019-02-27T03:37:18.879Z,5.07
2019-02-27T03:40:33.879Z,5.70
2019-02-27T03:43:19.195Z,5.67
2019-02-27T03:46:17.166Z,5.03
2019-02-27T03:49:11.520Z,4.93
2019-02-27T03:52:37.271Z,5.17
2019-02-27T03:55:43.639Z,5.67
2019-02-27T03:58:43.375Z,5.53
2019-02-27T04:01:43.271Z,5.80
2019-02-27T04:04:37.134Z,5.50
2019-02-27T04:07:34.030Z,5.63
2019-02-27T04:10:02.882Z,5.10
2019-02-27T04:12:31.649Z,4.90
2019-02-27T04:15:00.394Z,5.23
2019-02-27T04:17:28.742Z,5.40
2019-02-27T04:19:57.531Z,5.20
2019-02-27T04:22:26.406Z,5.67
2019-02-27T04:24:56.858Z,5.93
2019-02-27T04:27:25.550Z,5.40
2019-02-27T04:29:54.289Z,5.67
2019-02-27T04:32:23.010Z,5.63
2019-02-27T04:34:51.736Z,6.17
2019-02-27T04:37:21.034Z,5.93
2019-02-27T04:39:49.919Z,5.53
2019-02-27T04:42:18.650Z,5.40
2019-02-27T04:44:47.374Z,5.73
2019-02-27T04:47:16.063Z,5.70
2019-02-27T04:49:44.766Z,5.60
2019-02-27T04:52:13.500Z,5.03
2019-02-27T04:54:42.273Z,5.60
2019-02-27T04:57:11.001Z,5.43
2019-02-27T04:59:39.710Z,5.30
2019-02-27T05:02:08.406Z,5.50
2019-02-27T05:04:37.110Z,5.83
2019-02-27T05:07:05.811Z,5.60
2019-02-27T05:09:34.678Z,5.73
2019-02-27T05:12:03.383Z,5.67
2019-02-27T05:14:32.091Z,5.20
2019-02-27T05:17:00.866Z,5.50
2019-02-27T05:19:29.595Z,5.10
2019-02-27T05:21:58.345Z,5.23
2019-02-27T05:24:27.089Z,5.23
2019-02-27T05:26:58.116Z,5.40
2019-02-27T05:29:26.238Z,5.57
2019-02-27T05:31:56.897Z,5.53
2019-02-27T05:34:25.834Z,5.60
2019-02-27T05:36:54.571Z,5.80
2019-02-27T05:39:23.271Z,5.83
2019-02-27T05:44:26.693Z,5.50
2019-02-27T05:46:55.463Z,5.20
2019-02-27T05:49:26.575Z,5.70
2019-02-27T05:51:54.614Z,5.43
2019-02-27T05:54:23.420Z,5.43
2019-02-27T05:56:52.150Z,5.87
2019-02-27T05:59:20.925Z,5.57
2019-02-27T06:01:50.043Z,6.00
2019-02-27T06:04:18.745Z,4.83
2019-02-27T06:06:47.504Z,5.60
2019-02-27T06:09:16.231Z,6.03
2019-02-27T06:11:44.936Z,5.77
2019-02-27T06:14:13.679Z,5.73
2019-02-27T06:16:42.438Z,6.08
2019-02-27T06:19:11.191Z,6.17
2019-02-27T06:21:39.927Z,6.33
2019-02-27T06:24:11.636Z,6.00
2019-02-27T06:26:39.182Z,5.63
2019-02-27T06:29:07.902Z,6.00
2019-02-27T06:31:39.310Z,5.60
2019-02-27T06:34:07.101Z,5.47
2019-02-27T06:39:10.051Z,5.97
2019-02-27T06:41:39.966Z,5.73
2019-02-27T06:44:08.862Z,5.60
2019-02-27T06:46:37.587Z,5.93
2019-02-27T06:49:06.319Z,6.33
2019-02-27T06:51:35.781Z,5.73
2019-02-27T06:54:05.272Z,6.17
2019-02-27T06:56:33.991Z,6.60
2019-02-27T06:59:03.610Z,6.17
2019-02-27T07:01:32.339Z,6.73
2019-02-27T07:04:02.319Z,5.93
2019-02-27T07:06:31.495Z,6.77
2019-02-27T07:09:00.217Z,5.87
2019-02-27T07:11:28.898Z,6.20
2019-02-27T07:13:57.594Z,6.10
2019-02-27T07:16:26.390Z,6.20
2019-02-27T07:18:55.765Z,6.77
2019-02-27T07:21:25.053Z,6.03
2019-02-27T07:23:57.750Z,5.80
2019-02-27T07:26:25.362Z,6.23
2019-02-27T07:28:54.646Z,6.03
2019-02-27T07:31:23.903Z,6.37
2019-02-27T07:33:53.197Z,6.93
2019-02-27T07:36:22.459Z,6.23
2019-02-27T07:38:54.416Z,6.70
2019-02-27T07:41:22.760Z,6.43
2019-02-27T07:43:52.040Z,6.47
2019-02-27T07:46:22.402Z,6.10
2019-02-27T07:48:56.403Z,6.50
2019-02-27T07:51:23.934Z,6.20
2019-02-27T07:53:53.877Z,6.17
2019-02-27T07:56:23.845Z,6.13
2019-02-27T07:58:53.120Z,5.73
2019-02-27T08:01:23.538Z,6.20
2019-02-27T08:03:53.580Z,6.17
2019-02-27T08:06:23.649Z,6.27
2019-02-27T08:08:56.995Z,6.00
2019-02-27T08:11:24.132Z,6.27
2019-02-27T08:13:53.391Z,6.00
2019-02-27T08:16:22.725Z,6.17
2019-02-27T08:18:51.993Z,6.20
2019-02-27T08:21:21.308Z,6.03
2019-02-27T08:23:50.629Z,6.13
2019-02-27T08:26:19.928Z,6.27
2019-02-27T08:28:49.234Z,6.37
2019-02-27T08:31:18.474Z,5.73
2019-02-27T08:33:47.734Z,6.60
2019-02-27T08:36:17.046Z,6.23
2019-02-27T08:38:46.329Z,6.00
2019-02-27T08:41:15.602Z,6.37
2019-02-27T08:43:44.887Z,6.10
2019-02-27T08:46:14.255Z,6.03
2019-02-27T08:48:43.532Z,6.37
2019-02-27T08:51:12.792Z,6.10
2019-02-27T08:53:42.058Z,6.33
2019-02-27T08:56:12.383Z,6.47
2019-02-27T08:58:42.350Z,6.40
2019-02-27T09:01:12.119Z,6.43
2019-02-27T09:03:41.368Z,6.17
2019-02-27T09:06:10.692Z,6.57
2019-02-27T09:08:43.174Z,6.43
2019-02-27T09:11:11.225Z,6.63
2019-02-27T09:13:40.584Z,6.20
2019-02-27T09:16:09.861Z,6.03
2019-02-27T09:18:39.148Z,6.33
2019-02-27T09:21:08.385Z,6.07
2019-02-27T09:23:37.649Z,6.40
2019-02-27T09:26:08.563Z,6.57
2019-02-27T09:28:37.853Z,6.60
2019-02-27T09:31:07.158Z,6.23
2019-02-27T09:33:39.053Z,6.20
2019-02-27T09:36:08.029Z,6.37
2019-02-27T09:38:38.551Z,6.53
2019-02-27T09:41:12.182Z,6.30
2019-02-27T09:43:38.846Z,6.40
2019-02-27T09:46:08.236Z,5.93
2019-02-27T09:48:37.616Z,6.03
2019-02-27T09:51:07.046Z,5.90
2019-02-27T09:53:36.780Z,6.20
2019-02-27T09:56:06.745Z,6.60
2019-02-27T09:58:36.136Z,6.33
2019-02-27T10:01:19.149Z,6.63
2019-02-27T10:03:48.445Z,6.00
2019-02-27T10:06:17.772Z,6.65
2019-02-27T10:08:47.271Z,7.00
2019-02-27T10:11:18.908Z,6.23
2019-02-27T10:13:47.524Z,5.97
2019-02-27T10:16:16.823Z,6.17
2019-02-27T10:18:46.171Z,6.00
2019-02-27T10:21:15.526Z,6.50
2019-02-27T10:23:44.776Z,6.17
2019-02-27T10:26:16.690Z,6.00
2019-02-27T10:28:45.055Z,6.20
2019-02-27T10:31:14.346Z,6.47
2019-02-27T10:33:43.713Z,5.80
2019-02-27T10:36:13.051Z,6.50
2019-02-27T10:38:42.386Z,6.13
2019-02-27T10:41:11.658Z,5.73
2019-02-27T10:43:40.950Z,5.70
2019-02-27T10:46:10.277Z,6.17
2019-02-27T10:48:39.939Z,5.83
2019-02-27T10:51:09.713Z,5.70
2019-02-27T10:53:39.603Z,6.03
2019-02-27T10:56:08.901Z,5.23
2019-02-27T10:58:38.135Z,5.77
2019-02-27T11:01:07.469Z,5.80
2019-02-27T11:03:36.782Z,7.70
2019-02-27T11:06:06.126Z,5.57
2019-02-27T11:08:35.442Z,5.50
2019-02-27T11:11:04.714Z,5.50
2019-02-27T11:13:33.999Z,5.87
2019-02-27T11:16:03.280Z,5.40
2019-02-27T11:18:32.540Z,6.20
2019-02-27T11:21:01.857Z,6.93
2019-02-27T11:23:31.190Z,5.97
2019-02-27T11:26:00.832Z,6.23
2019-02-27T11:28:30.123Z,5.90
2019-02-27T11:31:01.162Z,6.17
2019-02-27T11:33:33.458Z,5.53
2019-02-27T11:36:03.172Z,5.70
2019-02-27T11:38:32.772Z,6.20
2019-02-27T11:41:02.067Z,5.43
2019-02-27T11:43:31.408Z,5.87
2019-02-27T11:46:00.717Z,5.50
2019-02-27T11:48:29.978Z,5.77
2019-02-27T11:50:59.284Z,5.47
2019-02-27T11:53:28.617Z,5.60
2019-02-27T11:55:57.965Z,5.23
2019-02-27T11:58:27.225Z,5.60
2019-02-27T12:00:56.596Z,5.33
2019-02-27T12:03:25.894Z,5.67
2019-02-27T12:05:55.186Z,5.60
2019-02-27T12:08:25.797Z,5.67
2019-02-27T12:10:55.415Z,4.97
2019-02-27T12:13:24.704Z,5.27
2019-02-27T12:15:53.976Z,5.40
2019-02-27T12:18:23.706Z,5.30
2019-02-27T12:20:53.949Z,5.47
2019-02-27T12:23:23.540Z,5.97
2019-02-27T12:25:52.844Z,5.30
2019-02-27T12:28:22.726Z,5.10
2019-02-27T12:30:52.025Z,5.53
2019-02-27T12:33:21.362Z,5.40
2019-02-27T12:35:50.746Z,5.30
2019-02-27T12:38:20.057Z,5.13
2019-02-27T12:40:49.370Z,4.73
2019-02-27T12:43:18.650Z,4.80
2019-02-27T12:45:47.971Z,4.60
2019-02-27T12:48:17.284Z,4.40
2019-02-27T12:50:46.560Z,4.87
2019-02-27T12:53:20.660Z,4.77
2019-02-27T12:55:46.926Z,5.23
2019-02-27T12:58:16.264Z,4.60
2019-02-27T13:00:46.583Z,4.57
2019-02-27T13:03:15.903Z,5.00
2019-02-27T13:05:45.175Z,4.50
2019-02-27T13:08:16.401Z,4.10
2019-02-27T13:10:45.492Z,4.30
2019-02-27T13:13:14.802Z,4.23
2019-02-27T13:15:44.100Z,4.53
2019-02-27T13:18:13.378Z,4.60
2019-02-27T13:20:43.049Z,4.67
2019-02-27T13:23:13.694Z,4.60
2019-02-27T13:25:42.959Z,4.33
2019-02-27T13:28:14.590Z,4.50
2019-02-27T13:30:43.218Z,3.80
2019-02-27T13:33:12.555Z,3.70
2019-02-27T13:35:41.904Z,3.77
2019-02-27T13:38:11.234Z,3.90
2019-02-27T13:40:40.547Z,3.93
2019-02-27T13:43:09.931Z,3.70
2019-02-27T13:45:39.225Z,3.60
2019-02-27T13:48:08.562Z,4.00
2019-02-27T13:50:37.875Z,3.90
2019-02-27T13:53:07.174Z,3.80
2019-02-27T13:55:36.457Z,3.53
2019-02-27T13:58:05.761Z,4.00
2019-02-27T14:00:35.430Z,4.07
2019-02-27T14:03:04.814Z,3.63
2019-02-27T14:05:35.966Z,4.20
2019-02-27T14:08:05.377Z,3.93
2019-02-27T14:10:35.362Z,3.77
2019-02-27T14:13:08.781Z,3.30
2019-02-27T14:15:35.774Z,3.77
2019-02-27T14:18:05.064Z,3.60
2019-02-27T14:20:34.326Z,3.13
2019-02-27T14:23:03.826Z,3.60
2019-02-27T14:25:33.443Z,3.17
2019-02-27T14:28:03.054Z,3.47
2019-02-27T14:30:36.458Z,3.00
2019-02-27T14:33:06.012Z,3.20
2019-02-27T14:35:36.474Z,2.87
2019-02-27T14:38:06.143Z,3.00
2019-02-27T14:40:39.483Z,3.37
2019-02-27T14:43:07.019Z,3.00
2019-02-27T14:45:39.514Z,3.27
2019-02-27T14:48:07.458Z,3.17
2019-02-27T14:50:36.721Z,2.47
2019-02-27T14:53:06.019Z,2.73
2019-02-27T14:55:37.251Z,2.30
2019-02-27T14:58:06.376Z,2.70
2019-02-27T15:00:40.067Z,2.60
2019-02-27T15:03:06.987Z,2.30
2019-02-27T15:05:37.011Z,2.83
2019-02-27T15:08:07.466Z,2.80
2019-02-27T15:10:40.296Z,2.60
2019-02-27T15:13:07.773Z,2.27
2019-02-27T15:15:37.080Z,3.13
2019-02-27T15:18:06.492Z,4.43
2019-02-27T15:20:40.207Z,4.10
2019-02-27T15:23:07.703Z,3.87
2019-02-27T15:25:41.926Z,3.70
2019-02-27T15:28:08.006Z,3.90
2019-02-27T15:30:37.296Z,4.20
2019-02-27T15:33:06.561Z,3.80
2019-02-27T15:35:35.854Z,3.90
2019-02-27T15:38:05.364Z,3.93
2019-02-27T15:40:34.614Z,3.33
2019-02-27T15:43:10.985Z,3.10
2019-02-27T15:45:34.916Z,3.73
2019-02-27T15:48:06.906Z,3.93
2019-02-27T15:50:35.550Z,3.50
2019-02-27T15:53:05.207Z,3.80
2019-02-27T15:55:35.366Z,3.40
2019-02-27T15:58:05.053Z,4.27
2019-02-27T16:00:34.327Z,3.77
2019-02-27T16:03:03.610Z,3.50
2019-02-27T16:05:32.877Z,3.83
2019-02-27T16:08:02.236Z,3.97
2019-02-27T16:10:31.562Z,3.67
2019-02-27T16:13:01.390Z,3.90
2019-02-27T16:15:30.902Z,3.70
2019-02-27T16:18:04.341Z,3.33
2019-02-27T16:20:31.403Z,3.20
2019-02-27T16:23:04.234Z,2.87
2019-02-27T16:25:31.686Z,3.17
2019-02-27T16:28:00.980Z,2.83
2019-02-27T16:30:32.529Z,3.10
2019-02-27T16:33:01.335Z,3.13
2019-02-27T16:35:30.638Z,2.87
2019-02-27T16:38:00.097Z,3.07
2019-02-27T16:40:29.510Z,3.10
2019-02-27T16:42:58.795Z,3.03
2019-02-27T16:45:32.347Z,3.17
2019-02-27T16:48:00.022Z,2.70
2019-02-27T16:50:29.311Z,3.00
2019-02-27T16:52:58.630Z,3.10
2019-02-27T16:55:28.200Z,3.03
2019-02-27T16:57:57.943Z,2.83
2019-02-27T17:00:29.097Z,3.13
2019-02-27T17:02:58.403Z,3.23
2019-02-27T17:05:27.759Z,3.43
2019-02-27T17:08:00.284Z,3.57
2019-02-27T17:10:29.701Z,3.40
2019-02-27T17:12:59.248Z,3.60
2019-02-27T17:15:34.549Z,3.20
2019-02-27T17:18:00.006Z,3.20
2019-02-27T17:20:29.364Z,3.80
2019-02-27T17:22:58.753Z,3.80
2019-02-27T17:25:30.058Z,3.47
2019-02-27T17:27:59.123Z,3.47
2019-02-27T17:30:30.219Z,3.27
2019-02-27T17:33:01.393Z,2.90
2019-02-27T17:35:30.550Z,3.80
2019-02-27T17:38:00.026Z,4.30
2019-02-27T17:40:29.431Z,4.63
2019-02-27T17:42:58.781Z,4.67
2019-02-27T17:45:28.304Z,4.37
2019-02-27T17:47:57.598Z,4.20
2019-02-27T17:50:30.964Z,4.10
2019-02-27T17:52:57.951Z,3.80
2019-02-27T17:55:27.301Z,3.90
2019-02-27T17:57:58.587Z,3.87
2019-02-27T18:00:35.323Z,2.87
2019-02-27T18:03:05.800Z,3.70
2019-02-27T18:05:35.356Z,6.80
2019-02-27T18:08:04.692Z,8.93
2019-02-27T18:10:37.114Z,12.20
2019-02-27T18:13:05.343Z,12.93
2019-02-27T18:15:35.244Z,10.40
2019-02-27T18:18:07.125Z,6.10
2019-02-27T18:20:35.709Z,5.73
2019-02-27T18:23:05.052Z,4.90
2019-02-27T18:25:34.351Z,4.20
2019-02-27T18:28:03.710Z,4.30
2019-02-27T18:30:33.081Z,4.60
2019-02-27T18:33:02.381Z,4.50
2019-02-27T18:35:31.755Z,4.87
2019-02-27T18:38:01.099Z,4.00
2019-02-27T18:40:30.444Z,4.50
2019-02-27T18:42:59.702Z,5.60
2019-02-27T18:45:29.045Z,6.80
2019-02-27T18:47:58.901Z,5.20
2019-02-27T18:50:28.528Z,4.67
2019-02-27T18:52:57.869Z,4.40
2019-02-27T18:55:30.971Z,3.77
2019-02-27T18:57:58.281Z,3.67
2019-02-27T19:00:27.932Z,4.23
2019-02-27T19:02:57.338Z,3.87
2019-02-27T19:05:26.715Z,3.97
2019-02-27T19:07:56.069Z,8.90
2019-02-27T19:10:25.464Z,7.33
2019-02-27T19:12:54.901Z,6.23
2019-02-27T19:15:24.322Z,5.20
2019-02-27T19:17:53.726Z,5.20
2019-02-27T19:20:25.574Z,4.87
2019-02-27T19:22:54.928Z,3.87
2019-02-27T19:25:24.282Z,4.28
2019-02-27T19:27:53.806Z,3.80
2019-02-27T19:30:23.545Z,3.70
2019-02-27T19:32:58.302Z,3.80
2019-02-27T19:35:23.965Z,3.33
